Clinton, MS (39056)

2:54 AM CDT on August 02, 2014 (GMT -0500)
John Bell Williams, Raymond (KJVW) Elev 246 ft | 32.30 °N, 90.41 °W | Change Station

Current weather conditions updated 19 minutes ago

Haze
Haze
70 °F
Feels Like 70 °F
N
0
Wind Variable Wind from North

Today is forecast to be Warmer than yesterday. Scattered thunderstorms possible.

Today
High -- | Low -- °F
--% Chance of Precip.
Yesterday
High -- | Low -- °F
Precip. -- in
6:16 AM 7:57 PM
Waxing Crescent, 33% visible
Pressure 30.00 in
Visibility 2.5 miles
Clouds Clear
Dew Point 64 °F
Humidity 83%
Rainfall 0.00 in
Snow Depth Not available.
UV 0 out of 12
Pollen 2.10 out of 12
Air Quality Not available.
Flu Activity Not available.
METAR KJVW 020735Z AUTO 00000KT 2 1/2SM HZ CLR 21/18 A3000 RMK AO2

More Conditions Fewer Conditions

Pressure 30.00 in
Visibility 2.5 miles
Clouds Clear
Dew Point 64 °F
Humidity 83%
Rainfall 0.00 in
Snow Depth Not available.
UV 0 out of 12
Pollen 2.10 out of 12
Air Quality Not available.
Flu Activity Not available.
METAR KJVW 020735Z AUTO 00000KT 2 1/2SM HZ CLR 21/18 A3000 RMK AO2

More Conditions Fewer Conditions

10-Day Weather Forecast

Almanac

Astronomy

Aug. 02, 2014 Rise Set
Actual Time 6:16 AM CDT 7:57 PM CDT
Civil Twilight 5:49 AM CDT 8:24 PM CDT
Nautical Twilight 5:17 AM CDT 8:56 PM CDT
Astronomical Twilight 4:43 AM CDT 9:30 PM CDT
Moon 12:14 PM CDT 11:42 PM CDT
Length of Visible Light 14h 34m
Length of Day
13h 41m
Tomorrow will be 1m 30s shorter.
Waxing Crescent, 33% of the Moon is Illuminated
Today
Waxing Crescent
Aug 3
First Quarter
Aug 10
Full
Aug 17
Last Quarter
Aug 25
New

Today's Extremes

State Highs State Lows

Community

WunderPhotos

Upload Photos

1,739,843 photos uploaded!

Nearby

Snow Depth

Station Depth Elevation
No new snow has been reported.

Earthquake Activity

City Distance Mag. Time & Date
No recent earthquake activity has been reported nearby.
Minimum magnitude displayed is 2.5.

Coastal Water Temperatures

Place Temperature
No Stations Reporting

Nearby Weather Stations

Station Location Temp. Dew Point Humidity Wind Precip. Elev Updated Type
Brinkly, Jackson, MS 71.8 °F 71 °F 98% NE  at  1.7 mph - / hr 344 ft 2:42 AM CDT Normal
Red Oak, Gluckstadt, MS 72.3 °F 71 °F 95% WNW  at  0.0 mph 0.00 in / hr 289 ft 2:54 AM CDT Rapid Fire
Tank, Crystal Springs, MS 68.7 °F 68 °F 99% SE  at  0.0 mph - / hr 338 ft 2:51 AM CDT Normal
Country Meadows, Brandon, MS 71.1 °F 70 °F 95% ENE  at  0.0 mph - / hr 367 ft 2:50 AM CDT Normal
Raintree Place, Brandon, MS 72.3 °F 71 °F 95% SSE  at  1.1 mph - / hr 410 ft 2:42 AM CDT Normal

Show More Stations Show Fewer Stations